sensor_id;sensor_type;location;lat;lon;timestamp;P1;P2;P0
65783;PMS5003;52532;53.358;-1.488;2022-08-19T00:02:33;35.8;24.2;
65783;PMS5003;52532;53.358;-1.488;2022-08-19T00:05:40;21.3;11.2;
65783;PMS5003;52532;53.358;-1.488;2022-08-19T00:08:44;28.0;15.9;
65783;PMS5003;52532;53.358;-1.488;2022-08-19T00:11:47;28.0;15.2;
65783;PMS5003;52532;53.358;-1.488;2022-08-19T00:14:50;25.4;11.8;
65783;PMS5003;52532;53.358;-1.488;2022-08-19T00:17:55;42.3;34.3;
65783;PMS5003;52532;53.358;-1.488;2022-08-19T00:20:58;37.5;26.7;
65783;PMS5003;52532;53.358;-1.488;2022-08-19T00:24:02;23.9;14.4;
65783;PMS5003;52532;53.358;-1.488;2022-08-19T00:27:05;41.7;34.2;
65783;PMS5003;52532;53.358;-1.488;2022-08-19T00:30:08;33.0;21.1;
65783;PMS5003;52532;53.358;-1.488;2022-08-19T00:33:12;19.0;9.7;
65783;PMS5003;52532;53.358;-1.488;2022-08-19T00:36:15;25.5;14.0;
65783;PMS5003;52532;53.358;-1.488;2022-08-19T00:39:19;22.9;10.1;
65783;PMS5003;52532;53.358;-1.488;2022-08-19T00:42:22;20.3;11.0;
65783;PMS5003;52532;53.358;-1.488;2022-08-19T00:45:32;44.0;34.8;
65783;PMS5003;52532;53.358;-1.488;2022-08-19T00:48:37;31.3;18.2;
65783;PMS5003;52532;53.358;-1.488;2022-08-19T00:51:40;24.6;13.0;
65783;PMS5003;52532;53.358;-1.488;2022-08-19T00:54:45;52.6;40.5;
65783;PMS5003;52532;53.358;-1.488;2022-08-19T00:57:51;32.0;19.5;
65783;PMS5003;52532;53.358;-1.488;2022-08-19T01:00:57;25.7;16.7;
65783;PMS5003;52532;53.358;-1.488;2022-08-19T01:04:00;56.4;47.2;
65783;PMS5003;52532;53.358;-1.488;2022-08-19T01:07:03;50.5;38.5;
65783;PMS5003;52532;53.358;-1.488;2022-08-19T01:10:08;36.5;27.6;
65783;PMS5003;52532;53.358;-1.488;2022-08-19T01:13:14;46.0;36.7;
65783;PMS5003;52532;53.358;-1.488;2022-08-19T01:16:18;45.8;33.6;
65783;PMS5003;52532;53.358;-1.488;2022-08-19T01:19:26;39.6;30.3;
65783;PMS5003;52532;53.358;-1.488;2022-08-19T01:22:31;34.5;24.6;
65783;PMS5003;52532;53.358;-1.488;2022-08-19T01:25:43;17.3;6.3;
65783;PMS5003;52532;53.358;-1.488;2022-08-19T01:28:51;19.8;11.3;
65783;PMS5003;52532;53.358;-1.488;2022-08-19T01:31:56;42.8;31.6;
65783;PMS5003;52532;53.358;-1.488;2022-08-19T01:35:00;23.0;12.4;
65783;PMS5003;52532;53.358;-1.488;2022-08-19T01:38:04;25.7;16.0;
65783;PMS5003;52532;53.358;-1.488;2022-08-19T01:41:09;28.9;17.9;
65783;PMS5003;52532;53.358;-1.488;2022-08-19T01:44:13;19.9;9.3;
65783;PMS5003;52532;53.358;-1.488;2022-08-19T01:47:17;25.4;17.9;
65783;PMS5003;52532;53.358;-1.488;2022-08-19T01:50:20;53.7;42.8;
65783;PMS5003;52532;53.358;-1.488;2022-08-19T01:53:23;24.3;10.6;
65783;PMS5003;52532;53.358;-1.488;2022-08-19T01:56:26;22.8;15.1;
65783;PMS5003;52532;53.358;-1.488;2022-08-19T01:59:29;36.9;26.4;
65783;PMS5003;52532;53.358;-1.488;2022-08-19T02:02:33;21.1;9.2;
65783;PMS5003;52532;53.358;-1.488;2022-08-19T02:05:36;23.4;15.8;
65783;PMS5003;52532;53.358;-1.488;2022-08-19T02:08:39;55.2;42.6;
65783;PMS5003;52532;53.358;-1.488;2022-08-19T02:11:42;51.8;41.1;
65783;PMS5003;52532;53.358;-1.488;2022-08-19T02:14:46;41.2;34.3;
65783;PMS5003;52532;53.358;-1.488;2022-08-19T02:17:49;44.8;31.9;
65783;PMS5003;52532;53.358;-1.488;2022-08-19T02:20:52;48.9;37.2;
65783;PMS5003;52532;53.358;-1.488;2022-08-19T02:23:55;33.9;26.6;
65783;PMS5003;52532;53.358;-1.488;2022-08-19T02:26:58;26.2;24.9;
65783;PMS5003;52532;53.358;-1.488;2022-08-19T02:30:01;32.0;32.0;
65783;PMS5003;52532;53.358;-1.488;2022-08-19T02:33:05;16.9;16.7;
65783;PMS5003;52532;53.358;-1.488;2022-08-19T02:36:09;18.5;18.5;
65783;PMS5003;52532;53.358;-1.488;2022-08-19T02:39:13;25.5;22.0;
65783;PMS5003;52532;53.358;-1.488;2022-08-19T02:42:16;20.7;19.5;
65783;PMS5003;52532;53.358;-1.488;2022-08-19T02:45:19;24.0;23.2;
65783;PMS5003;52532;53.358;-1.488;2022-08-19T02:48:23;32.1;30.8;
65783;PMS5003;52532;53.358;-1.488;2022-08-19T02:51:28;46.6;44.6;
65783;PMS5003;52532;53.358;-1.488;2022-08-19T02:54:33;51.9;49.9;
65783;PMS5003;52532;53.358;-1.488;2022-08-19T02:57:36;42.3;37.5;
65783;PMS5003;52532;53.358;-1.488;2022-08-19T03:00:43;45.1;44.4;
65783;PMS5003;52532;53.358;-1.488;2022-08-19T03:03:46;37.3;35.0;
65783;PMS5003;52532;53.358;-1.488;2022-08-19T03:06:49;32.4;29.3;
65783;PMS5003;52532;53.358;-1.488;2022-08-19T03:09:53;49.7;39.7;
65783;PMS5003;52532;53.358;-1.488;2022-08-19T03:12:56;52.9;41.1;
65783;PMS5003;52532;53.358;-1.488;2022-08-19T03:15:59;54.6;45.9;
65783;PMS5003;52532;53.358;-1.488;2022-08-19T03:19:06;18.5;18.1;
65783;PMS5003;52532;53.358;-1.488;2022-08-19T03:22:09;22.2;21.1;
65783;PMS5003;52532;53.358;-1.488;2022-08-19T03:25:12;29.6;24.9;
65783;PMS5003;52532;53.358;-1.488;2022-08-19T03:28:15;28.0;27.6;
65783;PMS5003;52532;53.358;-1.488;2022-08-19T03:31:20;17.0;16.3;
65783;PMS5003;52532;53.358;-1.488;2022-08-19T03:34:25;19.1;18.3;
65783;PMS5003;52532;53.358;-1.488;2022-08-19T03:37:30;35.5;34.5;
65783;PMS5003;52532;53.358;-1.488;2022-08-19T03:40:36;28.8;28.7;
65783;PMS5003;52532;53.358;-1.488;2022-08-19T03:43:39;30.8;29.9;
65783;PMS5003;52532;53.358;-1.488;2022-08-19T03:46:43;30.2;27.6;
65783;PMS5003;52532;53.358;-1.488;2022-08-19T03:49:47;43.7;42.6;
65783;PMS5003;52532;53.358;-1.488;2022-08-19T03:52:50;39.9;38.2;
65783;PMS5003;52532;53.358;-1.488;2022-08-19T03:55:53;24.3;20.9;
65783;PMS5003;52532;53.358;-1.488;2022-08-19T03:58:57;34.3;32.2;
65783;PMS5003;52532;53.358;-1.488;2022-08-19T04:02:02;34.2;31.8;
65783;PMS5003;52532;53.358;-1.488;2022-08-19T04:05:10;20.0;18.6;
65783;PMS5003;52532;53.358;-1.488;2022-08-19T04:08:14;31.8;27.6;
65783;PMS5003;52532;53.358;-1.488;2022-08-19T04:11:25;28.4;23.5;
65783;PMS5003;52532;53.358;-1.488;2022-08-19T04:14:30;23.9;22.9;
65783;PMS5003;52532;53.358;-1.488;2022-08-19T04:17:33;23.3;23.3;
65783;PMS5003;52532;53.358;-1.488;2022-08-19T04:20:40;32.4;27.9;
65783;PMS5003;52532;53.358;-1.488;2022-08-19T04:23:45;36.8;25.4;
65783;PMS5003;52532;53.358;-1.488;2022-08-19T04:26:48;32.7;22.4;
65783;PMS5003;52532;53.358;-1.488;2022-08-19T04:29:52;32.6;25.8;
65783;PMS5003;52532;53.358;-1.488;2022-08-19T04:32:55;42.2;30.2;
65783;PMS5003;52532;53.358;-1.488;2022-08-19T04:35:58;39.9;29.4;
65783;PMS5003;52532;53.358;-1.488;2022-08-19T04:39:03;45.8;41.2;
65783;PMS5003;52532;53.358;-1.488;2022-08-19T04:42:08;49.2;45.4;
65783;PMS5003;52532;53.358;-1.488;2022-08-19T04:45:43;36.7;36.3;
65783;PMS5003;52532;53.358;-1.488;2022-08-19T04:48:46;62.7;58.1;
65783;PMS5003;52532;53.358;-1.488;2022-08-19T04:51:50;97.0;95.3;
65783;PMS5003;52532;53.358;-1.488;2022-08-19T04:54:55;108.5;105.3;
65783;PMS5003;52532;53.358;-1.488;2022-08-19T04:57:58;44.3;36.5;
65783;PMS5003;52532;53.358;-1.488;2022-08-19T05:01:01;49.5;35.3;
65783;PMS5003;52532;53.358;-1.488;2022-08-19T05:04:05;88.9;74.8;
65783;PMS5003;52532;53.358;-1.488;2022-08-19T05:07:09;28.1;17.6;
65783;PMS5003;52532;53.358;-1.488;2022-08-19T05:10:12;35.2;20.5;
65783;PMS5003;52532;53.358;-1.488;2022-08-19T05:13:15;51.6;40.4;
65783;PMS5003;52532;53.358;-1.488;2022-08-19T05:16:20;33.6;24.7;
65783;PMS5003;52532;53.358;-1.488;2022-08-19T05:19:24;41.1;29.1;
65783;PMS5003;52532;53.358;-1.488;2022-08-19T05:24:37;56.0;45.8;
65783;PMS5003;52532;53.358;-1.488;2022-08-19T05:27:41;26.0;24.6;
65783;PMS5003;52532;53.358;-1.488;2022-08-19T05:30:44;50.0;50.0;
65783;PMS5003;52532;53.358;-1.488;2022-08-19T05:33:47;69.7;67.3;
65783;PMS5003;52532;53.358;-1.488;2022-08-19T05:36:51;57.0;54.0;
65783;PMS5003;52532;53.358;-1.488;2022-08-19T05:39:58;67.4;64.9;
65783;PMS5003;52532;53.358;-1.488;2022-08-19T05:43:01;71.5;67.5;
65783;PMS5003;52532;53.358;-1.488;2022-08-19T05:46:05;61.2;57.6;
65783;PMS5003;52532;53.358;-1.488;2022-08-19T05:49:08;73.2;69.5;
65783;PMS5003;52532;53.358;-1.488;2022-08-19T05:52:12;65.3;63.8;
65783;PMS5003;52532;53.358;-1.488;2022-08-19T05:55:17;24.4;23.9;
65783;PMS5003;52532;53.358;-1.488;2022-08-19T05:58:21;29.9;29.4;
65783;PMS5003;52532;53.358;-1.488;2022-08-19T06:01:25;43.2;39.1;
65783;PMS5003;52532;53.358;-1.488;2022-08-19T06:04:28;99.9;85.5;
65783;PMS5003;52532;53.358;-1.488;2022-08-19T06:07:31;95.9;84.0;
65783;PMS5003;52532;53.358;-1.488;2022-08-19T06:10:34;74.3;66.9;
65783;PMS5003;52532;53.358;-1.488;2022-08-19T06:13:38;79.5;67.6;
65783;PMS5003;52532;53.358;-1.488;2022-08-19T06:16:41;80.6;70.1;
65783;PMS5003;52532;53.358;-1.488;2022-08-19T06:19:44;73.8;64.7;
65783;PMS5003;52532;53.358;-1.488;2022-08-19T06:22:48;57.8;45.4;
65783;PMS5003;52532;53.358;-1.488;2022-08-19T06:25:51;55.9;42.7;
65783;PMS5003;52532;53.358;-1.488;2022-08-19T06:28:54;63.2;55.0;
65783;PMS5003;52532;53.358;-1.488;2022-08-19T06:31:58;100.2;89.3;
65783;PMS5003;52532;53.358;-1.488;2022-08-19T06:35:03;97.7;87.9;
65783;PMS5003;52532;53.358;-1.488;2022-08-19T06:38:07;80.6;71.0;
65783;PMS5003;52532;53.358;-1.488;2022-08-19T06:41:11;101.8;87.5;
65783;PMS5003;52532;53.358;-1.488;2022-08-19T06:44:14;104.9;93.3;
65783;PMS5003;52532;53.358;-1.488;2022-08-19T06:47:19;70.0;59.1;
65783;PMS5003;52532;53.358;-1.488;2022-08-19T06:50:23;99.0;85.0;
65783;PMS5003;52532;53.358;-1.488;2022-08-19T06:53:26;92.2;82.5;
65783;PMS5003;52532;53.358;-1.488;2022-08-19T06:56:31;65.5;55.7;
65783;PMS5003;52532;53.358;-1.488;2022-08-19T06:59:36;49.7;36.7;
65783;PMS5003;52532;53.358;-1.488;2022-08-19T07:02:39;41.2;32.2;
65783;PMS5003;52532;53.358;-1.488;2022-08-19T07:05:42;65.8;55.6;
65783;PMS5003;52532;53.358;-1.488;2022-08-19T07:08:46;81.6;69.6;
65783;PMS5003;52532;53.358;-1.488;2022-08-19T07:11:51;62.4;52.3;
65783;PMS5003;52532;53.358;-1.488;2022-08-19T07:14:55;77.8;66.7;
65783;PMS5003;52532;53.358;-1.488;2022-08-19T07:17:57;98.5;86.3;
65783;PMS5003;52532;53.358;-1.488;2022-08-19T07:21:02;76.8;71.7;
65783;PMS5003;52532;53.358;-1.488;2022-08-19T07:24:06;87.3;76.0;
65783;PMS5003;52532;53.358;-1.488;2022-08-19T07:27:09;108.4;95.0;
65783;PMS5003;52532;53.358;-1.488;2022-08-19T07:30:12;63.8;58.5;
65783;PMS5003;52532;53.358;-1.488;2022-08-19T07:33:15;52.2;40.7;
65783;PMS5003;52532;53.358;-1.488;2022-08-19T07:36:20;40.5;29.6;
65783;PMS5003;52532;53.358;-1.488;2022-08-19T07:39:26;44.1;37.2;
65783;PMS5003;52532;53.358;-1.488;2022-08-19T07:42:31;50.8;39.3;
65783;PMS5003;52532;53.358;-1.488;2022-08-19T07:45:34;49.4;35.9;
65783;PMS5003;52532;53.358;-1.488;2022-08-19T07:48:37;49.9;41.4;
65783;PMS5003;52532;53.358;-1.488;2022-08-19T07:51:40;79.4;66.2;
65783;PMS5003;52532;53.358;-1.488;2022-08-19T07:54:51;76.1;60.5;
65783;PMS5003;52532;53.358;-1.488;2022-08-19T07:58:06;63.6;53.5;
65783;PMS5003;52532;53.358;-1.488;2022-08-19T08:01:17;93.8;82.7;
65783;PMS5003;52532;53.358;-1.488;2022-08-19T08:04:22;99.7;87.4;
65783;PMS5003;52532;53.358;-1.488;2022-08-19T08:09:35;80.6;69.9;
65783;PMS5003;52532;53.358;-1.488;2022-08-19T08:12:40;83.9;71.8;
65783;PMS5003;52532;53.358;-1.488;2022-08-19T08:15:43;95.5;84.4;
65783;PMS5003;52532;53.358;-1.488;2022-08-19T08:18:46;74.3;64.1;
65783;PMS5003;52532;53.358;-1.488;2022-08-19T08:21:50;92.6;79.6;
65783;PMS5003;52532;53.358;-1.488;2022-08-19T08:24:55;94.1;81.8;
65783;PMS5003;52532;53.358;-1.488;2022-08-19T08:28:00;76.0;68.3;
65783;PMS5003;52532;53.358;-1.488;2022-08-19T08:31:05;72.1;61.5;
65783;PMS5003;52532;53.358;-1.488;2022-08-19T08:34:08;99.1;89.0;
65783;PMS5003;52532;53.358;-1.488;2022-08-19T08:37:12;83.8;72.2;
65783;PMS5003;52532;53.358;-1.488;2022-08-19T08:40:17;78.0;64.3;
65783;PMS5003;52532;53.358;-1.488;2022-08-19T08:43:24;92.5;80.8;
65783;PMS5003;52532;53.358;-1.488;2022-08-19T08:46:34;47.8;35.2;
65783;PMS5003;52532;53.358;-1.488;2022-08-19T08:49:43;52.7;36.0;
65783;PMS5003;52532;53.358;-1.488;2022-08-19T08:52:52;57.5;46.4;
65783;PMS5003;52532;53.358;-1.488;2022-08-19T08:55:58;89.9;85.1;
65783;PMS5003;52532;53.358;-1.488;2022-08-19T08:59:05;120.2;107.2;
65783;PMS5003;52532;53.358;-1.488;2022-08-19T09:02:15;98.2;88.7;
65783;PMS5003;52532;53.358;-1.488;2022-08-19T09:05:18;107.2;93.5;
65783;PMS5003;52532;53.358;-1.488;2022-08-19T09:08:25;100.3;88.7;
65783;PMS5003;52532;53.358;-1.488;2022-08-19T09:11:46;76.2;68.4;
65783;PMS5003;52532;53.358;-1.488;2022-08-19T09:15:00;103.4;89.7;
65783;PMS5003;52532;53.358;-1.488;2022-08-19T09:18:06;90.2;79.1;
65783;PMS5003;52532;53.358;-1.488;2022-08-19T09:21:12;95.8;86.3;
65783;PMS5003;52532;53.358;-1.488;2022-08-19T09:24:16;100.3;87.9;
65783;PMS5003;52532;53.358;-1.488;2022-08-19T09:27:20;95.5;83.5;
65783;PMS5003;52532;53.358;-1.488;2022-08-19T09:30:26;84.3;78.0;
65783;PMS5003;52532;53.358;-1.488;2022-08-19T09:33:30;105.2;91.5;
65783;PMS5003;52532;53.358;-1.488;2022-08-19T09:36:34;100.7;89.2;
65783;PMS5003;52532;53.358;-1.488;2022-08-19T09:39:40;86.5;79.9;
65783;PMS5003;52532;53.358;-1.488;2022-08-19T09:42:44;94.5;81.9;
65783;PMS5003;52532;53.358;-1.488;2022-08-19T09:45:48;110.1;100.5;
65783;PMS5003;52532;53.358;-1.488;2022-08-19T09:48:52;86.3;81.8;
65783;PMS5003;52532;53.358;-1.488;2022-08-19T09:52:01;90.5;79.1;
65783;PMS5003;52532;53.358;-1.488;2022-08-19T09:55:07;78.9;69.4;
65783;PMS5003;52532;53.358;-1.488;2022-08-19T09:58:11;77.4;70.7;
65783;PMS5003;52532;53.358;-1.488;2022-08-19T10:01:16;104.6;90.5;
65783;PMS5003;52532;53.358;-1.488;2022-08-19T10:04:21;112.5;98.5;
65783;PMS5003;52532;53.358;-1.488;2022-08-19T10:07:24;78.1;68.6;
65783;PMS5003;52532;53.358;-1.488;2022-08-19T10:10:27;110.0;94.8;
65783;PMS5003;52532;53.358;-1.488;2022-08-19T10:13:30;128.8;114.8;
65783;PMS5003;52532;53.358;-1.488;2022-08-19T10:16:37;79.0;70.5;
65783;PMS5003;52532;53.358;-1.488;2022-08-19T10:20:06;103.8;88.5;
65783;PMS5003;52532;53.358;-1.488;2022-08-19T10:23:12;107.3;95.2;
65783;PMS5003;52532;53.358;-1.488;2022-08-19T10:26:19;93.7;79.9;
65783;PMS5003;52532;53.358;-1.488;2022-08-19T10:29:25;105.3;89.2;
65783;PMS5003;52532;53.358;-1.488;2022-08-19T10:32:31;95.8;86.1;
65783;PMS5003;52532;53.358;-1.488;2022-08-19T10:35:36;88.7;75.6;
65783;PMS5003;52532;53.358;-1.488;2022-08-19T10:38:43;91.1;76.6;
65783;PMS5003;52532;53.358;-1.488;2022-08-19T10:41:47;90.8;82.3;
65783;PMS5003;52532;53.358;-1.488;2022-08-19T10:44:51;88.8;75.3;
65783;PMS5003;52532;53.358;-1.488;2022-08-19T10:47:54;76.9;67.1;
65783;PMS5003;52532;53.358;-1.488;2022-08-19T10:50:57;88.4;80.3;
65783;PMS5003;52532;53.358;-1.488;2022-08-19T10:56:13;109.6;97.8;
65783;PMS5003;52532;53.358;-1.488;2022-08-19T11:00:22;105.2;90.8;
65783;PMS5003;52532;53.358;-1.488;2022-08-19T11:03:26;95.9;84.2;
65783;PMS5003;52532;53.358;-1.488;2022-08-19T11:06:32;102.7;88.8;
65783;PMS5003;52532;53.358;-1.488;2022-08-19T11:09:36;105.5;93.1;
65783;PMS5003;52532;53.358;-1.488;2022-08-19T11:12:41;95.9;89.7;
65783;PMS5003;52532;53.358;-1.488;2022-08-19T11:15:44;100.2;86.7;
65783;PMS5003;52532;53.358;-1.488;2022-08-19T11:18:49;114.5;101.5;
65783;PMS5003;52532;53.358;-1.488;2022-08-19T11:21:53;87.2;80.8;
65783;PMS5003;52532;53.358;-1.488;2022-08-19T11:24:56;91.4;79.1;
65783;PMS5003;52532;53.358;-1.488;2022-08-19T11:27:59;108.3;96.4;
65783;PMS5003;52532;53.358;-1.488;2022-08-19T11:31:03;85.1;76.9;
65783;PMS5003;52532;53.358;-1.488;2022-08-19T11:34:10;103.5;87.8;
65783;PMS5003;52532;53.358;-1.488;2022-08-19T11:37:18;110.6;96.2;
65783;PMS5003;52532;53.358;-1.488;2022-08-19T11:40:21;90.5;81.3;
65783;PMS5003;52532;53.358;-1.488;2022-08-19T11:43:26;108.0;92.9;
65783;PMS5003;52532;53.358;-1.488;2022-08-19T11:46:31;111.9;97.8;
65783;PMS5003;52532;53.358;-1.488;2022-08-19T11:49:34;90.3;81.8;
65783;PMS5003;52532;53.358;-1.488;2022-08-19T11:52:38;110.4;97.4;
65783;PMS5003;52532;53.358;-1.488;2022-08-19T11:55:41;115.6;99.4;
65783;PMS5003;52532;53.358;-1.488;2022-08-19T11:58:46;107.8;94.7;
65783;PMS5003;52532;53.358;-1.488;2022-08-19T12:01:50;111.7;98.6;
65783;PMS5003;52532;53.358;-1.488;2022-08-19T12:04:53;90.8;81.6;
65783;PMS5003;52532;53.358;-1.488;2022-08-19T12:07:55;107.4;96.0;
65783;PMS5003;52532;53.358;-1.488;2022-08-19T12:10:59;118.9;107.1;
65783;PMS5003;52532;53.358;-1.488;2022-08-19T12:14:03;110.7;102.7;
65783;PMS5003;52532;53.358;-1.488;2022-08-19T12:17:07;107.7;95.7;
65783;PMS5003;52532;53.358;-1.488;2022-08-19T12:20:11;116.4;103.8;
65783;PMS5003;52532;53.358;-1.488;2022-08-19T12:23:17;105.2;97.4;
65783;PMS5003;52532;53.358;-1.488;2022-08-19T12:26:20;107.4;94.1;
65783;PMS5003;52532;53.358;-1.488;2022-08-19T12:29:23;111.7;99.9;
65783;PMS5003;52532;53.358;-1.488;2022-08-19T12:32:30;108.9;98.6;
65783;PMS5003;52532;53.358;-1.488;2022-08-19T12:35:33;112.0;99.7;
65783;PMS5003;52532;53.358;-1.488;2022-08-19T12:38:38;103.2;90.6;
65783;PMS5003;52532;53.358;-1.488;2022-08-19T12:41:41;89.4;83.4;
65783;PMS5003;52532;53.358;-1.488;2022-08-19T12:44:44;103.0;91.3;
65783;PMS5003;52532;53.358;-1.488;2022-08-19T12:47:49;120.6;107.1;
65783;PMS5003;52532;53.358;-1.488;2022-08-19T12:50:54;104.1;91.8;
65783;PMS5003;52532;53.358;-1.488;2022-08-19T12:53:58;107.6;94.0;
65783;PMS5003;52532;53.358;-1.488;2022-08-19T12:57:04;114.4;103.6;
65783;PMS5003;52532;53.358;-1.488;2022-08-19T13:00:11;103.8;95.0;
65783;PMS5003;52532;53.358;-1.488;2022-08-19T13:03:16;109.1;95.2;
65783;PMS5003;52532;53.358;-1.488;2022-08-19T13:06:20;111.6;97.9;
65783;PMS5003;52532;53.358;-1.488;2022-08-19T13:09:23;104.2;87.3;
65783;PMS5003;52532;53.358;-1.488;2022-08-19T13:12:26;113.6;97.9;
65783;PMS5003;52532;53.358;-1.488;2022-08-19T13:15:29;107.5;95.2;
65783;PMS5003;52532;53.358;-1.488;2022-08-19T13:18:37;87.3;78.0;
65783;PMS5003;52532;53.358;-1.488;2022-08-19T13:21:41;106.6;93.8;
65783;PMS5003;52532;53.358;-1.488;2022-08-19T13:24:44;95.8;83.3;
65783;PMS5003;52532;53.358;-1.488;2022-08-19T13:27:47;89.6;80.7;
65783;PMS5003;52532;53.358;-1.488;2022-08-19T13:30:52;111.9;95.4;
65783;PMS5003;52532;53.358;-1.488;2022-08-19T13:36:08;90.9;79.1;
65783;PMS5003;52532;53.358;-1.488;2022-08-19T13:39:11;100.3;90.4;
65783;PMS5003;52532;53.358;-1.488;2022-08-19T13:42:14;103.7;91.3;
65783;PMS5003;52532;53.358;-1.488;2022-08-19T13:45:20;90.8;81.7;
65783;PMS5003;52532;53.358;-1.488;2022-08-19T13:48:27;89.9;80.4;
65783;PMS5003;52532;53.358;-1.488;2022-08-19T13:51:30;101.7;87.7;
65783;PMS5003;52532;53.358;-1.488;2022-08-19T13:54:35;94.2;83.4;
65783;PMS5003;52532;53.358;-1.488;2022-08-19T13:57:39;92.6;80.5;
65783;PMS5003;52532;53.358;-1.488;2022-08-19T14:00:44;108.8;94.8;
65783;PMS5003;52532;53.358;-1.488;2022-08-19T14:03:48;99.5;88.7;
65783;PMS5003;52532;53.358;-1.488;2022-08-19T14:06:51;114.3;101.7;
65783;PMS5003;52532;53.358;-1.488;2022-08-19T14:09:54;123.6;111.3;
65783;PMS5003;52532;53.358;-1.488;2022-08-19T14:12:59;111.7;100.3;
65783;PMS5003;52532;53.358;-1.488;2022-08-19T14:16:06;117.4;104.6;
65783;PMS5003;52532;53.358;-1.488;2022-08-19T14:19:10;119.7;106.8;
65783;PMS5003;52532;53.358;-1.488;2022-08-19T14:22:13;103.8;94.7;
65783;PMS5003;52532;53.358;-1.488;2022-08-19T14:25:17;115.0;103.3;
65783;PMS5003;52532;53.358;-1.488;2022-08-19T14:28:21;129.7;114.0;
65783;PMS5003;52532;53.358;-1.488;2022-08-19T14:31:25;104.2;93.6;
65783;PMS5003;52532;53.358;-1.488;2022-08-19T14:34:27;96.6;81.7;
65783;PMS5003;52532;53.358;-1.488;2022-08-19T14:37:33;97.0;86.1;
65783;PMS5003;52532;53.358;-1.488;2022-08-19T14:40:37;93.2;84.0;
65783;PMS5003;52532;53.358;-1.488;2022-08-19T14:43:41;109.2;92.3;
65783;PMS5003;52532;53.358;-1.488;2022-08-19T14:46:48;123.0;112.3;
65783;PMS5003;52532;53.358;-1.488;2022-08-19T14:49:51;106.3;98.1;
65783;PMS5003;52532;53.358;-1.488;2022-08-19T14:52:58;106.8;94.0;
65783;PMS5003;52532;53.358;-1.488;2022-08-19T14:56:07;115.4;103.4;
65783;PMS5003;52532;53.358;-1.488;2022-08-19T14:59:11;90.0;81.9;
65783;PMS5003;52532;53.358;-1.488;2022-08-19T15:02:14;89.3;76.6;
65783;PMS5003;52532;53.358;-1.488;2022-08-19T15:05:17;93.4;80.0;
65783;PMS5003;52532;53.358;-1.488;2022-08-19T15:08:20;82.2;76.2;
65783;PMS5003;52532;53.358;-1.488;2022-08-19T15:11:26;60.8;52.4;
65783;PMS5003;52532;53.358;-1.488;2022-08-19T15:14:30;59.5;53.9;
65783;PMS5003;52532;53.358;-1.488;2022-08-19T15:17:36;58.2;53.5;
65783;PMS5003;52532;53.358;-1.488;2022-08-19T15:20:39;51.0;48.5;
65783;PMS5003;52532;53.358;-1.488;2022-08-19T15:23:42;43.6;39.8;
65783;PMS5003;52532;53.358;-1.488;2022-08-19T15:26:45;69.6;59.6;
65783;PMS5003;52532;53.358;-1.488;2022-08-19T15:29:47;51.1;44.7;
65783;PMS5003;52532;53.358;-1.488;2022-08-19T15:32:51;60.6;50.9;
65783;PMS5003;52532;53.358;-1.488;2022-08-19T15:35:59;59.7;55.0;
65783;PMS5003;52532;53.358;-1.488;2022-08-19T15:39:13;50.7;47.6;
65783;PMS5003;52532;53.358;-1.488;2022-08-19T15:42:16;44.9;42.4;
65783;PMS5003;52532;53.358;-1.488;2022-08-19T15:45:20;53.9;49.8;
65783;PMS5003;52532;53.358;-1.488;2022-08-19T15:48:24;53.9;47.8;
65783;PMS5003;52532;53.358;-1.488;2022-08-19T15:51:27;57.9;51.9;
65783;PMS5003;52532;53.358;-1.488;2022-08-19T15:54:32;85.3;73.8;
65783;PMS5003;52532;53.358;-1.488;2022-08-19T15:57:35;89.4;77.3;
65783;PMS5003;52532;53.358;-1.488;2022-08-19T16:01:49;91.4;77.2;
65783;PMS5003;52532;53.358;-1.488;2022-08-19T16:07:05;97.9;82.7;
65783;PMS5003;52532;53.358;-1.488;2022-08-19T16:10:09;90.4;76.2;
65783;PMS5003;52532;53.358;-1.488;2022-08-19T16:13:12;78.8;71.3;
65783;PMS5003;52532;53.358;-1.488;2022-08-19T16:16:15;69.5;59.0;
65783;PMS5003;52532;53.358;-1.488;2022-08-19T16:19:18;68.2;57.4;
65783;PMS5003;52532;53.358;-1.488;2022-08-19T16:22:26;86.8;79.1;
65783;PMS5003;52532;53.358;-1.488;2022-08-19T16:25:30;114.0;98.2;
65783;PMS5003;52532;53.358;-1.488;2022-08-19T16:28:34;125.4;114.6;
65783;PMS5003;52532;53.358;-1.488;2022-08-19T16:31:37;93.1;86.9;
65783;PMS5003;52532;53.358;-1.488;2022-08-19T16:34:41;85.7;75.0;
65783;PMS5003;52532;53.358;-1.488;2022-08-19T16:37:44;95.0;81.4;
65783;PMS5003;52532;53.358;-1.488;2022-08-19T16:40:47;94.8;85.2;
65783;PMS5003;52532;53.358;-1.488;2022-08-19T16:43:54;117.6;104.4;
65783;PMS5003;52532;53.358;-1.488;2022-08-19T16:46:57;128.8;116.3;
65783;PMS5003;52532;53.358;-1.488;2022-08-19T16:50:01;90.7;82.2;
65783;PMS5003;52532;53.358;-1.488;2022-08-19T16:53:08;123.0;107.4;
65783;PMS5003;52532;53.358;-1.488;2022-08-19T16:56:11;130.4;113.4;
65783;PMS5003;52532;53.358;-1.488;2022-08-19T16:59:14;106.9;96.2;
65783;PMS5003;52532;53.358;-1.488;2022-08-19T17:02:19;118.7;106.0;
65783;PMS5003;52532;53.358;-1.488;2022-08-19T17:05:24;114.8;103.2;
65783;PMS5003;52532;53.358;-1.488;2022-08-19T17:08:27;112.3;96.9;
65783;PMS5003;52532;53.358;-1.488;2022-08-19T17:11:33;122.6;109.8;
65783;PMS5003;52532;53.358;-1.488;2022-08-19T17:14:42;107.9;98.0;
65783;PMS5003;52532;53.358;-1.488;2022-08-19T17:17:50;107.8;96.7;
65783;PMS5003;52532;53.358;-1.488;2022-08-19T17:20:53;119.6;104.7;
65783;PMS5003;52532;53.358;-1.488;2022-08-19T17:23:57;113.4;98.5;
65783;PMS5003;52532;53.358;-1.488;2022-08-19T17:27:01;114.9;99.6;
65783;PMS5003;52532;53.358;-1.488;2022-08-19T17:30:06;116.9;102.5;
65783;PMS5003;52532;53.358;-1.488;2022-08-19T17:33:10;102.1;92.0;
65783;PMS5003;52532;53.358;-1.488;2022-08-19T17:36:13;113.6;100.3;
65783;PMS5003;52532;53.358;-1.488;2022-08-19T17:39:16;123.2;108.3;
65783;PMS5003;52532;53.358;-1.488;2022-08-19T17:42:19;108.5;96.6;
65783;PMS5003;52532;53.358;-1.488;2022-08-19T17:45:22;116.5;102.0;
65783;PMS5003;52532;53.358;-1.488;2022-08-19T17:48:25;124.9;110.8;
65783;PMS5003;52532;53.358;-1.488;2022-08-19T17:51:38;104.0;92.0;
65783;PMS5003;52532;53.358;-1.488;2022-08-19T17:54:44;111.6;96.6;
65783;PMS5003;52532;53.358;-1.488;2022-08-19T17:57:47;112.2;100.1;
65783;PMS5003;52532;53.358;-1.488;2022-08-19T18:00:50;87.5;79.1;
65783;PMS5003;52532;53.358;-1.488;2022-08-19T18:03:54;80.4;66.2;
65783;PMS5003;52532;53.358;-1.488;2022-08-19T18:07:07;103.5;88.1;
65783;PMS5003;52532;53.358;-1.488;2022-08-19T18:10:10;79.5;70.6;
65783;PMS5003;52532;53.358;-1.488;2022-08-19T18:13:14;83.2;70.6;
65783;PMS5003;52532;53.358;-1.488;2022-08-19T18:16:17;101.8;86.5;
65783;PMS5003;52532;53.358;-1.488;2022-08-19T18:19:21;79.3;69.5;
65783;PMS5003;52532;53.358;-1.488;2022-08-19T18:22:25;63.0;55.6;
65783;PMS5003;52532;53.358;-1.488;2022-08-19T18:25:29;39.1;36.5;
65783;PMS5003;52532;53.358;-1.488;2022-08-19T18:28:32;43.5;38.9;
65783;PMS5003;52532;53.358;-1.488;2022-08-19T18:31:36;53.5;49.6;
65783;PMS5003;52532;53.358;-1.488;2022-08-19T18:34:39;46.6;43.2;
65783;PMS5003;52532;53.358;-1.488;2022-08-19T18:37:44;57.8;57.8;
65783;PMS5003;52532;53.358;-1.488;2022-08-19T18:40:47;71.4;67.8;
65783;PMS5003;52532;53.358;-1.488;2022-08-19T18:45:59;60.1;56.8;
65783;PMS5003;52532;53.358;-1.488;2022-08-19T18:51:12;65.7;62.9;
65783;PMS5003;52532;53.358;-1.488;2022-08-19T18:54:17;65.5;61.5;
65783;PMS5003;52532;53.358;-1.488;2022-08-19T18:57:20;57.5;54.8;
65783;PMS5003;52532;53.358;-1.488;2022-08-19T19:00:25;56.1;53.2;
65783;PMS5003;52532;53.358;-1.488;2022-08-19T19:03:29;66.2;61.0;